createdAt,value
2023-03-06T00:01:02.363Z,6.15
2023-03-06T00:03:29.985Z,8.02
2023-03-06T00:05:58.871Z,10.95
2023-03-06T00:08:27.131Z,10.32
2023-03-06T00:11:00.817Z,10.50
2023-03-06T00:13:32.208Z,6.82
2023-03-06T00:16:01.079Z,9.70
2023-03-06T00:18:30.329Z,6.30
2023-03-06T00:21:02.275Z,6.85
2023-03-06T00:23:30.038Z,5.68
2023-03-06T00:25:57.722Z,7.80
2023-03-06T00:28:26.211Z,6.35
2023-03-06T00:31:02.763Z,6.35
2023-03-06T00:33:32.876Z,6.07
2023-03-06T00:36:00.135Z,5.63
2023-03-06T00:38:28.625Z,4.78
2023-03-06T00:40:55.814Z,5.60
2023-03-06T00:43:23.117Z,4.90
2023-03-06T00:45:50.440Z,4.82
2023-03-06T00:48:18.443Z,8.25
2023-03-06T00:50:45.739Z,10.02
2023-03-06T00:53:13.853Z,5.18
2023-03-06T00:55:46.444Z,3.22
2023-03-06T00:58:14.042Z,3.72
2023-03-06T01:00:41.317Z,5.60
2023-03-06T01:03:08.778Z,4.85
2023-03-06T01:05:37.477Z,3.55
2023-03-06T01:08:06.456Z,5.03
2023-03-06T01:10:34.115Z,4.38
2023-03-06T01:13:01.742Z,3.67
2023-03-06T01:15:30.008Z,4.10
2023-03-06T01:17:57.369Z,4.68
2023-03-06T01:20:24.737Z,4.43
2023-03-06T01:22:52.122Z,6.30
2023-03-06T01:25:19.603Z,7.07
2023-03-06T01:27:46.821Z,5.57
2023-03-06T01:30:14.255Z,8.98
2023-03-06T01:32:41.741Z,5.25
2023-03-06T01:35:09.652Z,6.20
2023-03-06T01:37:37.333Z,7.70
2023-03-06T01:40:05.196Z,4.82
2023-03-06T01:42:32.641Z,4.53
2023-03-06T01:45:09.882Z,5.97
2023-03-06T01:47:37.170Z,4.85
2023-03-06T01:50:08.494Z,6.30
2023-03-06T01:52:41.985Z,6.25
2023-03-06T01:55:15.543Z,3.40
2023-03-06T01:57:45.328Z,7.80
2023-03-06T02:00:20.747Z,6.85
2023-03-06T02:02:51.795Z,5.70
2023-03-06T02:05:19.051Z,4.57
2023-03-06T02:08:06.156Z,5.25
2023-03-06T02:10:33.745Z,8.15
2023-03-06T02:13:01.286Z,8.15
2023-03-06T02:15:28.999Z,6.05
2023-03-06T02:17:56.227Z,6.05
2023-03-06T02:20:39.638Z,6.78
2023-03-06T02:23:13.081Z,8.43
2023-03-06T02:25:45.128Z,4.10
2023-03-06T02:28:14.167Z,7.43
2023-03-06T02:30:42.266Z,8.43
2023-03-06T02:33:16.836Z,6.85
2023-03-06T02:35:55.431Z,7.78
2023-03-06T02:38:25.280Z,12.05
2023-03-06T02:40:52.582Z,5.53
2023-03-06T02:43:24.704Z,7.53
2023-03-06T02:45:52.273Z,7.40
2023-03-06T02:48:20.299Z,7.22
2023-03-06T02:53:18.741Z,5.90
2023-03-06T02:55:46.583Z,6.32
2023-03-06T02:58:13.896Z,6.82
2023-03-06T03:00:41.170Z,9.75
2023-03-06T03:03:08.572Z,9.77
2023-03-06T03:05:35.861Z,6.05
2023-03-06T03:08:04.007Z,10.07
2023-03-06T03:10:31.626Z,9.40
2023-03-06T03:12:58.972Z,9.07
2023-03-06T03:15:26.248Z,7.60
2023-03-06T03:17:53.467Z,6.15
2023-03-06T03:20:21.371Z,10.38
2023-03-06T03:22:53.573Z,8.93
2023-03-06T03:25:21.200Z,10.63
2023-03-06T03:27:49.227Z,9.65
2023-03-06T03:30:16.705Z,9.35
2023-03-06T03:32:44.718Z,6.82
2023-03-06T03:35:12.006Z,9.02
2023-03-06T03:37:39.277Z,10.23
2023-03-06T03:40:07.915Z,11.70
2023-03-06T03:42:35.212Z,9.70
2023-03-06T03:45:02.432Z,9.98
2023-03-06T03:47:30.290Z,13.25
2023-03-06T03:49:57.586Z,8.90
2023-03-06T03:52:25.016Z,12.27
2023-03-06T03:54:52.248Z,12.13
2023-03-06T03:57:19.615Z,9.68
2023-03-06T03:59:47.217Z,10.73
2023-03-06T04:02:14.945Z,8.52
2023-03-06T04:04:42.318Z,11.80
2023-03-06T04:07:09.714Z,8.98
2023-03-06T04:09:37.624Z,9.35
2023-03-06T04:12:05.954Z,9.30
2023-03-06T04:14:38.017Z,8.68
2023-03-06T04:17:05.304Z,9.75
2023-03-06T04:19:32.585Z,10.98
2023-03-06T04:22:02.525Z,8.00
2023-03-06T04:24:30.270Z,13.90
2023-03-06T04:27:01.646Z,10.82
2023-03-06T04:29:29.162Z,11.57
2023-03-06T04:31:57.769Z,10.00
2023-03-06T04:34:25.094Z,9.25
2023-03-06T04:36:56.760Z,10.55
2023-03-06T04:39:24.021Z,14.95
2023-03-06T04:41:53.616Z,9.60
2023-03-06T04:44:20.936Z,8.60
2023-03-06T04:46:48.302Z,10.25
2023-03-06T04:49:15.572Z,10.25
2023-03-06T04:51:42.867Z,12.18
2023-03-06T04:54:10.412Z,9.88
2023-03-06T04:56:37.925Z,9.63
2023-03-06T04:59:06.529Z,11.65
2023-03-06T05:01:34.093Z,13.85
2023-03-06T05:04:01.467Z,6.30
2023-03-06T05:06:29.041Z,8.77
2023-03-06T05:08:56.338Z,6.25
2023-03-06T05:11:23.747Z,9.85
2023-03-06T05:13:51.667Z,8.07
2023-03-06T05:16:23.528Z,6.55
2023-03-06T05:18:50.899Z,6.40
2023-03-06T05:21:18.124Z,10.82
2023-03-06T05:23:45.393Z,13.20
2023-03-06T05:26:14.131Z,8.82
2023-03-06T05:28:41.468Z,8.80
2023-03-06T05:31:09.127Z,10.00
2023-03-06T05:33:36.582Z,10.02
2023-03-06T05:36:04.421Z,7.18
2023-03-06T05:38:32.113Z,10.32
2023-03-06T05:40:59.766Z,10.90
2023-03-06T05:43:27.017Z,13.65
2023-03-06T05:46:04.472Z,34.33
2023-03-06T05:48:32.339Z,25.80
2023-03-06T05:51:00.137Z,10.27
2023-03-06T05:53:29.279Z,15.68
2023-03-06T05:56:01.332Z,15.90
2023-03-06T05:58:28.825Z,10.05
2023-03-06T06:00:56.222Z,13.98
2023-03-06T06:03:23.535Z,18.13
2023-03-06T06:05:51.038Z,16.27
2023-03-06T06:08:18.713Z,11.30
2023-03-06T06:10:45.978Z,15.75
2023-03-06T06:13:17.810Z,20.38
2023-03-06T06:15:58.372Z,14.20
2023-03-06T06:18:25.696Z,13.35
2023-03-06T06:20:54.955Z,16.75
2023-03-06T06:23:23.143Z,22.23
2023-03-06T06:25:51.551Z,20.42
2023-03-06T06:28:18.825Z,27.05
2023-03-06T06:30:46.479Z,20.95
2023-03-06T06:33:15.754Z,20.92
2023-03-06T06:35:43.026Z,22.98
2023-03-06T06:38:15.991Z,18.23
2023-03-06T06:40:43.211Z,14.68
2023-03-06T06:43:10.749Z,13.98
2023-03-06T06:45:38.436Z,12.88
2023-03-06T06:48:05.890Z,10.90
2023-03-06T06:50:33.421Z,7.85
2023-03-06T06:53:00.928Z,12.80
2023-03-06T06:55:28.544Z,12.48
2023-03-06T06:57:56.159Z,25.30
2023-03-06T07:00:24.023Z,16.52
2023-03-06T07:02:51.492Z,21.55
2023-03-06T07:05:21.023Z,20.35
2023-03-06T07:07:51.339Z,15.75
2023-03-06T07:10:20.724Z,20.05
2023-03-06T07:12:48.501Z,15.32
2023-03-06T07:15:16.861Z,11.82
2023-03-06T07:17:44.161Z,16.88
2023-03-06T07:20:14.485Z,31.35
2023-03-06T07:22:50.912Z,11.55
2023-03-06T07:25:19.135Z,10.80
2023-03-06T07:27:53.400Z,16.80
2023-03-06T07:30:24.278Z,15.50
2023-03-06T07:32:55.692Z,19.27
2023-03-06T07:35:23.758Z,18.08
2023-03-06T07:37:51.517Z,13.13
2023-03-06T07:40:19.949Z,17.08
2023-03-06T07:42:47.198Z,10.40
2023-03-06T07:45:14.450Z,6.95
2023-03-06T07:47:42.781Z,9.18
2023-03-06T07:50:10.677Z,12.15
2023-03-06T07:52:38.028Z,14.07
2023-03-06T07:55:05.827Z,9.40
2023-03-06T07:57:33.452Z,10.52
2023-03-06T08:00:00.752Z,7.25
2023-03-06T08:02:34.838Z,6.38
2023-03-06T08:05:02.135Z,7.93
2023-03-06T08:07:29.895Z,6.75
2023-03-06T08:09:57.124Z,9.60
2023-03-06T08:12:24.401Z,6.38
2023-03-06T08:14:51.624Z,11.32
2023-03-06T08:17:19.868Z,8.63
2023-03-06T08:19:47.332Z,9.40
2023-03-06T08:22:14.577Z,8.15
2023-03-06T08:24:41.880Z,8.55
2023-03-06T08:27:09.314Z,7.15
2023-03-06T08:29:40.330Z,8.32
2023-03-06T08:32:11.628Z,8.18
2023-03-06T08:37:07.454Z,8.63
2023-03-06T08:39:35.953Z,9.38
2023-03-06T08:42:03.185Z,11.27
2023-03-06T08:44:30.736Z,11.85
2023-03-06T08:46:58.069Z,11.23
2023-03-06T08:49:25.561Z,10.88
2023-03-06T08:51:52.932Z,10.10
2023-03-06T08:54:23.057Z,7.75
2023-03-06T08:56:50.513Z,9.90
2023-03-06T08:59:17.962Z,12.15
2023-03-06T09:01:46.665Z,12.02
2023-03-06T09:04:33.920Z,10.63
2023-03-06T09:07:01.729Z,11.77
2023-03-06T09:09:29.065Z,11.23
2023-03-06T09:11:56.719Z,13.10
2023-03-06T09:14:24.198Z,7.38
2023-03-06T09:16:51.420Z,7.72
2023-03-06T09:19:18.737Z,10.07
2023-03-06T09:21:46.857Z,9.27
2023-03-06T09:24:14.117Z,8.52
2023-03-06T09:26:47.073Z,10.20
2023-03-06T09:29:16.564Z,6.25
2023-03-06T09:31:44.699Z,10.25
2023-03-06T09:34:12.536Z,14.38
2023-03-06T09:36:55.533Z,8.75
2023-03-06T09:39:25.310Z,10.70
2023-03-06T09:41:52.727Z,12.07
2023-03-06T09:44:26.021Z,10.30
2023-03-06T09:47:19.799Z,11.00
2023-03-06T09:49:48.129Z,10.43
2023-03-06T09:52:43.558Z,12.45
2023-03-06T09:55:12.498Z,14.45
2023-03-06T09:57:51.193Z,7.10
2023-03-06T10:00:24.578Z,12.18
2023-03-06T10:03:04.189Z,10.20
2023-03-06T10:05:39.254Z,8.43
2023-03-06T10:08:23.325Z,6.68
2023-03-06T10:11:02.122Z,10.55
2023-03-06T10:13:57.006Z,8.00
2023-03-06T10:16:30.681Z,8.25
2023-03-06T10:19:07.182Z,4.88
2023-03-06T10:21:59.605Z,7.82
2023-03-06T10:24:39.608Z,7.70
2023-03-06T10:27:28.557Z,16.63
2023-03-06T10:30:18.564Z,8.23
2023-03-06T10:32:57.929Z,6.18
2023-03-06T10:35:30.435Z,6.53
2023-03-06T10:38:09.951Z,10.82
2023-03-06T10:40:44.329Z,7.90
2023-03-06T10:43:13.103Z,7.72
2023-03-06T10:45:51.258Z,10.05
2023-03-06T10:48:24.682Z,7.03
2023-03-06T10:50:52.963Z,8.05
2023-03-06T10:53:29.088Z,10.48
2023-03-06T10:55:59.191Z,9.45
2023-03-06T10:58:31.064Z,13.18
2023-03-06T11:01:03.784Z,8.93
2023-03-06T11:03:31.467Z,6.38
2023-03-06T11:06:06.729Z,6.53
2023-03-06T11:08:35.349Z,5.57
2023-03-06T11:11:07.981Z,6.35
2023-03-06T11:13:38.582Z,7.18
2023-03-06T11:16:30.427Z,8.32
2023-03-06T11:19:18.234Z,6.53
2023-03-06T11:21:58.640Z,6.00
2023-03-06T11:24:26.029Z,9.57
2023-03-06T11:26:56.159Z,6.45
2023-03-06T11:29:29.372Z,4.60
2023-03-06T11:32:05.346Z,6.22
2023-03-06T11:34:42.145Z,5.10
2023-03-06T11:37:16.178Z,4.55
2023-03-06T11:39:59.491Z,5.85
2023-03-06T11:42:28.745Z,6.80
2023-03-06T11:45:04.244Z,10.05
2023-03-06T11:47:41.254Z,6.35
2023-03-06T11:50:27.959Z,11.52
2023-03-06T11:52:58.293Z,4.78
2023-03-06T11:56:03.569Z,6.63
2023-03-06T11:58:40.424Z,9.23
2023-03-06T12:01:09.757Z,8.90
2023-03-06T12:03:57.519Z,5.50
2023-03-06T12:06:50.536Z,8.60
2023-03-06T12:09:48.278Z,5.90
2023-03-06T12:12:30.201Z,5.05
2023-03-06T12:15:23.708Z,4.90
2023-03-06T12:18:11.532Z,4.78
2023-03-06T12:20:41.686Z,4.85
2023-03-06T12:23:41.164Z,6.07
2023-03-06T12:26:17.540Z,4.72
2023-03-06T12:29:06.049Z,7.45
2023-03-06T12:31:40.141Z,8.57
2023-03-06T12:34:32.937Z,8.13
2023-03-06T12:37:23.858Z,8.10
2023-03-06T12:40:10.925Z,9.43
2023-03-06T12:42:42.426Z,9.95
2023-03-06T12:45:24.803Z,5.72
2023-03-06T12:47:56.536Z,7.22
2023-03-06T12:50:29.029Z,7.00
2023-03-06T12:53:07.241Z,8.52
2023-03-06T12:55:45.057Z,10.35
2023-03-06T12:58:30.823Z,8.15
2023-03-06T13:01:04.197Z,6.70
2023-03-06T13:04:11.380Z,9.80
2023-03-06T13:07:19.444Z,7.55
2023-03-06T13:10:07.151Z,5.43
2023-03-06T13:12:58.201Z,7.47
2023-03-06T13:15:45.899Z,8.77
2023-03-06T13:18:23.043Z,8.95
2023-03-06T13:20:53.516Z,6.57
2023-03-06T13:23:30.564Z,6.85
2023-03-06T13:26:26.805Z,6.07
2023-03-06T13:28:55.502Z,11.95
2023-03-06T13:31:28.462Z,6.38
2023-03-06T13:36:31.809Z,5.80
2023-03-06T13:39:09.111Z,6.63
2023-03-06T13:41:57.681Z,6.30
2023-03-06T13:44:25.002Z,7.80
2023-03-06T13:47:16.927Z,6.82
2023-03-06T13:49:45.309Z,8.88
2023-03-06T13:52:25.208Z,6.55
2023-03-06T13:55:10.241Z,6.93
2023-03-06T13:57:43.794Z,8.05
2023-03-06T14:00:25.947Z,6.90
2023-03-06T14:03:20.991Z,8.77
2023-03-06T14:05:49.512Z,6.30
2023-03-06T14:08:22.985Z,8.13
2023-03-06T14:11:05.034Z,5.85
2023-03-06T14:13:56.484Z,8.70
2023-03-06T14:16:32.699Z,8.70
2023-03-06T14:19:06.589Z,6.70
2023-03-06T14:21:40.270Z,9.07
2023-03-06T14:24:17.311Z,7.95
2023-03-06T14:26:49.654Z,7.05
2023-03-06T14:29:27.964Z,7.10
2023-03-06T14:31:57.927Z,6.60
2023-03-06T14:34:26.888Z,6.10
2023-03-06T14:36:55.357Z,8.40
2023-03-06T14:39:42.293Z,6.85
2023-03-06T14:42:26.561Z,6.80
2023-03-06T14:45:16.235Z,7.72
2023-03-06T14:47:52.581Z,7.43
2023-03-06T14:50:23.273Z,6.97
2023-03-06T14:52:58.120Z,7.15
2023-03-06T14:55:26.690Z,5.13
2023-03-06T14:58:17.602Z,10.00
2023-03-06T15:00:45.347Z,7.97
2023-03-06T15:03:16.407Z,8.93
2023-03-06T15:05:45.244Z,6.97
2023-03-06T15:08:18.073Z,7.35
2023-03-06T15:11:00.864Z,8.70
2023-03-06T15:13:29.548Z,10.95
2023-03-06T15:15:56.762Z,9.73
2023-03-06T15:18:40.570Z,7.97
2023-03-06T15:21:18.784Z,5.95
2023-03-06T15:23:50.389Z,6.50
2023-03-06T15:26:36.860Z,12.32
2023-03-06T15:29:13.743Z,9.38
2023-03-06T15:31:44.952Z,7.25
2023-03-06T15:34:15.599Z,5.88
2023-03-06T15:36:49.482Z,9.30
2023-03-06T15:42:21.260Z,8.73
2023-03-06T15:44:53.303Z,12.55
2023-03-06T15:47:21.232Z,13.25
2023-03-06T15:49:52.102Z,11.70
2023-03-06T15:52:20.273Z,6.97
2023-03-06T15:54:48.422Z,7.32
2023-03-06T15:57:24.162Z,8.55
2023-03-06T15:59:51.483Z,10.73
2023-03-06T16:02:20.352Z,9.73
2023-03-06T16:04:47.884Z,8.15
2023-03-06T16:07:15.547Z,10.02
2023-03-06T16:09:43.384Z,11.10
2023-03-06T16:12:21.042Z,9.85
2023-03-06T16:14:48.906Z,10.23
2023-03-06T16:17:16.693Z,10.32
2023-03-06T16:19:45.570Z,7.88
2023-03-06T16:22:12.909Z,9.27
2023-03-06T16:24:40.689Z,12.13
2023-03-06T16:27:18.008Z,9.90
2023-03-06T16:29:49.542Z,15.13
2023-03-06T16:32:16.852Z,8.25
2023-03-06T16:34:44.152Z,7.68
2023-03-06T16:37:12.781Z,9.30
2023-03-06T16:39:41.289Z,14.18
2023-03-06T16:42:08.550Z,10.75
2023-03-06T16:44:36.767Z,19.92
2023-03-06T16:47:04.171Z,9.88
2023-03-06T16:49:31.402Z,7.40
2023-03-06T16:51:58.692Z,12.20
2023-03-06T16:54:26.283Z,9.15
2023-03-06T16:56:53.655Z,10.63
2023-03-06T16:59:24.965Z,11.85
2023-03-06T17:01:52.531Z,14.70
2023-03-06T17:04:19.862Z,7.95
2023-03-06T17:06:47.201Z,10.15
2023-03-06T17:09:14.688Z,15.63
2023-03-06T17:11:44.873Z,15.38
2023-03-06T17:14:12.866Z,12.40
2023-03-06T17:16:40.702Z,14.13
2023-03-06T17:19:08.077Z,13.85
2023-03-06T17:21:38.307Z,12.07
2023-03-06T17:24:06.234Z,11.90
2023-03-06T17:26:33.882Z,15.90
2023-03-06T17:29:01.155Z,13.05
2023-03-06T17:31:28.580Z,11.68
2023-03-06T17:33:59.209Z,13.43
2023-03-06T17:36:27.770Z,10.40
2023-03-06T17:38:58.688Z,8.98
2023-03-06T17:41:26.156Z,11.35
2023-03-06T17:43:55.240Z,12.05
2023-03-06T17:46:23.090Z,11.05
2023-03-06T17:48:50.350Z,15.77
2023-03-06T17:51:17.839Z,9.13
2023-03-06T17:53:45.202Z,10.82
2023-03-06T17:56:15.550Z,12.20
2023-03-06T17:58:42.867Z,10.00
2023-03-06T18:01:15.084Z,15.48
2023-03-06T18:04:04.174Z,16.77
2023-03-06T18:06:33.489Z,11.30
2023-03-06T18:09:05.355Z,12.07
2023-03-06T18:11:32.879Z,15.77
2023-03-06T18:14:00.231Z,16.00
2023-03-06T18:16:47.353Z,14.38
2023-03-06T18:19:15.739Z,9.27
2023-03-06T18:21:42.980Z,13.32
2023-03-06T18:24:12.315Z,13.20
2023-03-06T18:26:42.180Z,14.73
2023-03-06T18:29:09.612Z,13.50
2023-03-06T18:31:38.591Z,12.75
2023-03-06T18:34:11.911Z,17.45
2023-03-06T18:36:39.401Z,10.13
2023-03-06T18:39:08.590Z,12.57
2023-03-06T18:41:41.401Z,12.05
2023-03-06T18:44:13.055Z,14.27
2023-03-06T18:46:40.457Z,16.77
2023-03-06T18:49:07.745Z,17.58
2023-03-06T18:51:37.087Z,16.58
2023-03-06T18:54:05.356Z,12.65
2023-03-06T18:56:32.901Z,17.38
2023-03-06T18:59:04.279Z,13.13
2023-03-06T19:01:32.021Z,12.80
2023-03-06T19:04:01.237Z,13.65
2023-03-06T19:06:29.373Z,14.45
2023-03-06T19:09:01.490Z,12.93
2023-03-06T19:11:29.188Z,10.07
2023-03-06T19:13:56.933Z,11.60
2023-03-06T19:16:28.552Z,8.27
2023-03-06T19:18:56.307Z,12.27
2023-03-06T19:21:25.610Z,13.40
2023-03-06T19:23:53.072Z,12.45
2023-03-06T19:26:20.631Z,12.23
2023-03-06T19:28:48.075Z,10.73
2023-03-06T19:31:19.600Z,24.00
2023-03-06T19:33:48.252Z,12.75
2023-03-06T19:36:15.920Z,14.57
2023-03-06T19:38:43.320Z,14.02
2023-03-06T19:41:15.316Z,18.83
2023-03-06T19:43:43.117Z,12.90
2023-03-06T19:46:11.979Z,18.50
2023-03-06T19:48:40.300Z,15.73
2023-03-06T19:51:07.826Z,12.60
2023-03-06T19:53:36.698Z,17.55
2023-03-06T19:56:10.607Z,11.07
2023-03-06T19:58:38.342Z,9.88
2023-03-06T20:01:16.174Z,15.00
2023-03-06T20:03:43.924Z,10.65
2023-03-06T20:06:13.346Z,12.90
2023-03-06T20:08:43.635Z,17.80
2023-03-06T20:11:24.627Z,11.60
2023-03-06T20:13:52.592Z,12.85
2023-03-06T20:16:19.854Z,12.73
2023-03-06T20:18:47.198Z,12.57
2023-03-06T20:21:14.624Z,13.35
2023-03-06T20:23:42.522Z,13.70
2023-03-06T20:26:11.992Z,11.20
2023-03-06T20:28:41.099Z,12.32
2023-03-06T20:31:13.532Z,14.65
2023-03-06T20:33:41.641Z,16.38
2023-03-06T20:36:19.248Z,12.77
2023-03-06T20:38:48.563Z,14.00
2023-03-06T20:41:23.575Z,12.43
2023-03-06T20:43:53.306Z,17.25
2023-03-06T20:46:21.807Z,14.25
2023-03-06T20:48:49.890Z,16.90
2023-03-06T20:51:21.813Z,15.65
2023-03-06T20:53:50.469Z,16.20
2023-03-06T20:56:19.171Z,11.65
2023-03-06T20:58:46.631Z,14.88
2023-03-06T21:01:23.394Z,12.23
2023-03-06T21:03:51.357Z,16.23
2023-03-06T21:06:18.751Z,15.75
2023-03-06T21:08:46.362Z,16.05
2023-03-06T21:11:13.805Z,11.30
2023-03-06T21:13:41.403Z,19.42
2023-03-06T21:16:11.219Z,18.23
2023-03-06T21:18:39.912Z,11.70
2023-03-06T21:21:09.275Z,13.32
2023-03-06T21:23:36.943Z,12.02
2023-03-06T21:26:06.241Z,13.90
2023-03-06T21:28:34.529Z,11.38
2023-03-06T21:31:02.074Z,13.18
2023-03-06T21:33:29.872Z,9.80
2023-03-06T21:35:57.181Z,9.95
2023-03-06T21:38:24.506Z,10.52
2023-03-06T21:40:51.759Z,12.68
2023-03-06T21:43:18.971Z,17.90
2023-03-06T21:45:46.882Z,10.93
2023-03-06T21:48:15.410Z,17.65
2023-03-06T21:50:42.672Z,10.45
2023-03-06T21:53:09.896Z,13.75
2023-03-06T21:55:41.013Z,11.57
2023-03-06T21:58:08.912Z,12.95
2023-03-06T22:00:36.655Z,10.90
2023-03-06T22:03:04.895Z,12.23
2023-03-06T22:05:32.343Z,13.63
2023-03-06T22:08:00.099Z,16.83
2023-03-06T22:10:27.565Z,13.70
2023-03-06T22:12:56.248Z,12.05
2023-03-06T22:15:23.966Z,12.52
2023-03-06T22:17:53.706Z,13.95
2023-03-06T22:20:21.081Z,13.07
2023-03-06T22:22:49.837Z,18.40
2023-03-06T22:25:17.286Z,17.63
2023-03-06T22:27:44.602Z,12.13
2023-03-06T22:30:12.440Z,18.63
2023-03-06T22:32:40.483Z,13.48
2023-03-06T22:35:08.291Z,19.70
2023-03-06T22:37:44.192Z,12.15
2023-03-06T22:40:12.964Z,11.18
2023-03-06T22:42:40.435Z,15.45
2023-03-06T22:45:12.484Z,23.98
2023-03-06T22:47:40.066Z,15.90
2023-03-06T22:50:07.885Z,16.65
2023-03-06T22:52:35.231Z,19.08
2023-03-06T22:55:09.839Z,14.20
2023-03-06T22:57:38.756Z,15.23
2023-03-06T23:00:07.269Z,13.55
2023-03-06T23:02:35.654Z,16.60
2023-03-06T23:05:07.328Z,15.68
2023-03-06T23:07:34.824Z,15.15
2023-03-06T23:10:02.520Z,13.90
2023-03-06T23:12:30.406Z,14.40
2023-03-06T23:14:58.682Z,13.18
2023-03-06T23:17:26.398Z,11.52
2023-03-06T23:19:53.634Z,12.55
2023-03-06T23:22:20.841Z,14.18
2023-03-06T23:24:48.183Z,14.15
2023-03-06T23:27:15.749Z,11.38
2023-03-06T23:29:50.105Z,13.45
2023-03-06T23:32:17.397Z,11.98
2023-03-06T23:34:44.732Z,14.88
2023-03-06T23:37:12.112Z,13.25
2023-03-06T23:39:39.445Z,12.38
2023-03-06T23:42:07.973Z,13.10
2023-03-06T23:44:35.727Z,12.68
2023-03-06T23:47:06.323Z,11.52
2023-03-06T23:49:34.116Z,9.18
2023-03-06T23:52:01.358Z,9.73
2023-03-06T23:54:28.671Z,7.53
2023-03-06T23:56:55.937Z,12.38
2023-03-06T23:59:23.169Z,11.38
